createdAt,value
2023-06-14T00:01:47.145Z,80.68
2023-06-14T00:04:17.852Z,79.99
2023-06-14T00:06:46.280Z,78.82
2023-06-14T00:09:14.355Z,79.33
2023-06-14T00:11:45.595Z,79.71
2023-06-14T00:14:13.469Z,79.29
2023-06-14T00:16:43.194Z,79.60
2023-06-14T00:19:11.361Z,79.58
2023-06-14T00:21:39.158Z,79.37
2023-06-14T00:24:06.878Z,79.13
2023-06-14T00:26:34.807Z,79.19
2023-06-14T00:29:02.832Z,78.68
2023-06-14T00:31:31.263Z,78.14
2023-06-14T00:33:58.553Z,78.62
2023-06-14T00:36:26.564Z,78.09
2023-06-14T00:38:54.778Z,76.68
2023-06-14T00:41:23.502Z,76.07
2023-06-14T00:43:52.261Z,76.29
2023-06-14T00:46:20.710Z,75.80
2023-06-14T00:48:48.817Z,75.47
2023-06-14T00:51:17.292Z,76.03
2023-06-14T00:53:48.082Z,77.56
2023-06-14T00:56:17.847Z,77.70
2023-06-14T00:58:45.619Z,76.89
2023-06-14T01:07:05.792Z,77.65
2023-06-14T01:09:42.147Z,77.08
2023-06-14T01:12:26.110Z,78.28
2023-06-14T01:14:53.764Z,79.23
2023-06-14T01:17:22.667Z,76.63
2023-06-14T01:19:54.459Z,77.91
2023-06-14T01:22:22.139Z,76.31
2023-06-14T01:24:50.417Z,75.70
2023-06-14T01:27:19.973Z,76.30
2023-06-14T01:29:49.222Z,77.33
2023-06-14T01:32:17.315Z,77.76
2023-06-14T01:34:45.295Z,78.23
2023-06-14T01:37:12.892Z,77.40
2023-06-14T01:39:40.871Z,78.77
2023-06-14T01:42:08.625Z,77.76
2023-06-14T01:44:36.009Z,76.15
2023-06-14T01:47:03.286Z,76.05
2023-06-14T01:49:31.303Z,75.70
2023-06-14T01:51:59.272Z,75.01
2023-06-14T01:54:26.705Z,73.85
2023-06-14T01:56:54.626Z,73.02
2023-06-14T01:59:22.096Z,73.73
2023-06-14T02:01:49.890Z,73.21
2023-06-14T02:04:17.556Z,72.88
2023-06-14T02:06:45.016Z,71.88
2023-06-14T02:09:12.655Z,72.27
2023-06-14T02:11:40.508Z,72.38
2023-06-14T02:14:08.160Z,72.55
2023-06-14T02:16:37.256Z,70.71
2023-06-14T02:19:04.993Z,71.39
2023-06-14T02:21:32.406Z,71.99
2023-06-14T02:23:59.941Z,71.44
2023-06-14T02:26:29.926Z,71.07
2023-06-14T02:28:57.265Z,70.34
2023-06-14T02:31:25.511Z,69.21
2023-06-14T02:33:53.208Z,69.21
2023-06-14T02:36:21.554Z,69.74
2023-06-14T02:38:49.224Z,69.81
2023-06-14T02:41:17.002Z,69.96
2023-06-14T02:43:44.759Z,68.88
2023-06-14T02:46:12.484Z,69.46
2023-06-14T02:48:39.993Z,69.75
2023-06-14T02:51:10.423Z,68.84
2023-06-14T02:53:38.684Z,70.01
2023-06-14T02:56:06.858Z,70.05
2023-06-14T02:58:34.826Z,70.48
2023-06-14T03:01:07.172Z,70.27
2023-06-14T03:03:35.080Z,70.53
2023-06-14T03:06:05.392Z,70.73
2023-06-14T03:08:39.428Z,69.79
2023-06-14T03:11:14.811Z,69.01
2023-06-14T03:13:42.601Z,69.22
2023-06-14T03:16:11.941Z,68.59
2023-06-14T03:18:42.162Z,69.35
2023-06-14T03:21:11.928Z,69.57
2023-06-14T03:23:44.010Z,70.70
2023-06-14T03:26:15.182Z,70.39
2023-06-14T03:28:42.956Z,70.02
2023-06-14T03:31:11.022Z,70.78
2023-06-14T03:33:39.938Z,70.39
2023-06-14T03:36:08.030Z,70.08
2023-06-14T03:38:35.964Z,69.80
2023-06-14T03:41:05.337Z,68.83
2023-06-14T03:43:34.580Z,69.87
2023-06-14T03:46:02.966Z,70.43
2023-06-14T03:48:32.669Z,69.45
2023-06-14T03:51:01.733Z,70.30
2023-06-14T03:53:32.006Z,67.65
2023-06-14T03:56:00.914Z,67.63
2023-06-14T03:58:36.443Z,68.13
2023-06-14T04:01:04.413Z,68.38
2023-06-14T04:03:32.599Z,67.67
2023-06-14T04:06:01.895Z,67.82
2023-06-14T04:08:29.505Z,68.00
2023-06-14T04:10:58.984Z,67.92
2023-06-14T04:13:26.406Z,67.58
2023-06-14T04:15:54.573Z,67.51
2023-06-14T04:18:27.888Z,65.69
2023-06-14T04:20:57.509Z,66.04
2023-06-14T04:23:24.991Z,66.33
2023-06-14T04:25:52.863Z,67.62
2023-06-14T04:28:20.621Z,67.91
2023-06-14T04:30:49.423Z,68.66
2023-06-14T04:33:19.601Z,68.41
2023-06-14T04:35:54.488Z,68.71
2023-06-14T04:38:26.553Z,66.63
2023-06-14T04:40:54.634Z,66.20
2023-06-14T04:43:27.156Z,66.66
2023-06-14T04:45:57.284Z,66.62
2023-06-14T04:48:26.348Z,64.82
2023-06-14T04:50:55.368Z,65.39
2023-06-14T04:53:24.134Z,66.41
2023-06-14T04:55:55.793Z,64.39
2023-06-14T04:58:25.064Z,63.12
2023-06-14T05:00:53.320Z,63.39
2023-06-14T05:03:22.028Z,62.67
2023-06-14T05:05:49.759Z,61.59
2023-06-14T05:08:17.920Z,61.02
2023-06-14T05:10:46.603Z,61.77
2023-06-14T05:13:14.282Z,59.67
2023-06-14T05:15:43.485Z,58.86
2023-06-14T05:18:11.117Z,59.29
2023-06-14T05:20:39.005Z,59.21
2023-06-14T05:23:06.701Z,57.51
2023-06-14T05:25:34.513Z,57.81
2023-06-14T05:28:02.459Z,58.34
2023-06-14T05:30:31.797Z,57.65
2023-06-14T05:32:59.185Z,56.87
2023-06-14T05:35:27.833Z,55.99
2023-06-14T05:37:55.499Z,55.54
2023-06-14T05:40:23.058Z,54.07
2023-06-14T05:42:50.716Z,54.93
2023-06-14T05:45:18.754Z,54.97
2023-06-14T05:50:45.553Z,54.52
2023-06-14T05:53:13.245Z,54.90
2023-06-14T05:55:41.768Z,54.98
2023-06-14T05:58:10.300Z,54.55
2023-06-14T06:00:38.076Z,54.27
2023-06-14T06:03:05.759Z,52.60
2023-06-14T06:05:33.478Z,52.46
2023-06-14T06:08:01.547Z,51.32
2023-06-14T06:10:28.767Z,52.21
2023-06-14T06:12:56.282Z,53.13
2023-06-14T06:15:24.275Z,53.57
2023-06-14T06:17:55.989Z,54.09
2023-06-14T06:20:29.441Z,54.06
2023-06-14T06:22:57.477Z,55.85
2023-06-14T06:25:26.792Z,55.95
2023-06-14T06:27:54.770Z,54.79
2023-06-14T06:30:22.220Z,55.66
2023-06-14T06:32:49.693Z,55.89
2023-06-14T06:35:18.094Z,57.29
2023-06-14T06:37:45.762Z,58.43
2023-06-14T06:40:13.833Z,60.43
2023-06-14T06:42:41.253Z,61.66
2023-06-14T06:45:12.904Z,62.32
2023-06-14T06:47:40.658Z,63.42
2023-06-14T06:50:09.332Z,64.10
2023-06-14T06:52:37.580Z,63.89
2023-06-14T06:55:05.659Z,64.09
2023-06-14T06:57:33.161Z,63.45
2023-06-14T07:00:01.147Z,63.19
2023-06-14T07:02:29.607Z,62.26
2023-06-14T07:04:57.231Z,60.40
2023-06-14T07:07:24.538Z,59.87
2023-06-14T07:09:52.163Z,59.18
2023-06-14T07:12:19.581Z,51.68
2023-06-14T07:14:47.286Z,51.50
2023-06-14T07:17:15.241Z,51.31
2023-06-14T07:19:42.542Z,50.02
2023-06-14T07:22:11.670Z,46.66
2023-06-14T07:24:41.278Z,45.07
2023-06-14T07:27:09.178Z,41.41
2023-06-14T07:29:36.991Z,41.86
2023-06-14T07:32:07.643Z,42.34
2023-06-14T07:34:35.572Z,38.56
2023-06-14T07:37:03.351Z,36.63
2023-06-14T07:39:31.157Z,35.07
2023-06-14T07:41:58.540Z,32.79
2023-06-14T07:44:26.626Z,32.53
2023-06-14T07:46:54.280Z,33.30
2023-06-14T07:49:22.016Z,35.63
2023-06-14T07:51:49.610Z,36.92
2023-06-14T07:54:17.829Z,37.11
2023-06-14T07:56:45.206Z,36.94
2023-06-14T07:59:12.832Z,36.94
2023-06-14T08:01:40.615Z,36.57
2023-06-14T08:04:08.041Z,37.05
2023-06-14T08:06:35.742Z,37.86
2023-06-14T08:09:03.227Z,38.97
2023-06-14T08:11:30.778Z,38.62
2023-06-14T08:14:01.279Z,39.51
2023-06-14T08:16:28.795Z,40.55
2023-06-14T08:18:56.846Z,39.42
2023-06-14T08:21:25.040Z,36.83
2023-06-14T08:23:54.420Z,37.50
2023-06-14T08:26:21.982Z,39.78
2023-06-14T08:28:49.334Z,40.96
2023-06-14T08:31:16.750Z,42.14
2023-06-14T08:33:44.354Z,38.61
2023-06-14T08:36:12.890Z,38.12
2023-06-14T08:38:41.042Z,38.14
2023-06-14T08:41:08.717Z,39.23
2023-06-14T08:43:36.128Z,41.01
2023-06-14T08:46:04.605Z,40.99
2023-06-14T08:48:35.437Z,41.14
2023-06-14T08:51:03.188Z,40.54
2023-06-14T08:53:36.661Z,38.73
2023-06-14T08:56:06.749Z,39.69
2023-06-14T08:58:34.978Z,40.42
2023-06-14T09:01:06.248Z,40.45
2023-06-14T09:03:34.098Z,41.92
2023-06-14T09:06:01.882Z,42.05
2023-06-14T09:08:31.278Z,42.23
2023-06-14T09:10:59.700Z,42.64
2023-06-14T09:13:30.700Z,43.49
2023-06-14T09:15:59.341Z,43.92
2023-06-14T09:18:39.909Z,41.87
2023-06-14T09:21:09.317Z,41.45
2023-06-14T09:23:43.071Z,40.89
2023-06-14T09:26:17.425Z,40.25
2023-06-14T09:28:45.904Z,38.27
2023-06-14T09:31:14.371Z,36.76
2023-06-14T09:33:51.534Z,38.42
2023-06-14T09:36:19.595Z,39.78
2023-06-14T09:39:01.456Z,38.68
2023-06-14T09:41:36.544Z,40.40
2023-06-14T09:44:08.829Z,39.18
2023-06-14T09:46:38.178Z,39.50
2023-06-14T09:49:06.964Z,38.76
2023-06-14T09:51:35.410Z,40.05
2023-06-14T09:54:05.498Z,39.15
2023-06-14T09:56:34.580Z,38.51
2023-06-14T09:59:08.044Z,38.22
2023-06-14T10:01:42.831Z,36.84
2023-06-14T10:04:12.195Z,37.12
2023-06-14T10:06:44.841Z,36.90
2023-06-14T10:09:12.783Z,36.05
2023-06-14T10:11:46.820Z,34.82
2023-06-14T10:14:16.971Z,35.26
2023-06-14T10:17:10.155Z,34.65
2023-06-14T10:19:44.108Z,34.74
2023-06-14T10:22:13.801Z,34.91
2023-06-14T10:24:45.305Z,34.79
2023-06-14T10:27:18.094Z,36.03
2023-06-14T10:29:55.036Z,34.96
2023-06-14T10:32:23.141Z,35.54
2023-06-14T10:34:58.105Z,35.52
2023-06-14T10:37:25.870Z,36.86
2023-06-14T10:39:54.287Z,37.21
2023-06-14T10:42:24.426Z,37.03
2023-06-14T10:45:06.142Z,37.42
2023-06-14T10:47:36.869Z,37.90
2023-06-14T10:50:06.560Z,38.03
2023-06-14T10:52:36.798Z,40.47
2023-06-14T10:55:23.976Z,41.74
2023-06-14T10:57:59.619Z,43.52
2023-06-14T11:00:29.291Z,43.09
2023-06-14T11:03:01.333Z,42.13
2023-06-14T11:05:31.992Z,42.70
2023-06-14T11:08:22.043Z,43.37
2023-06-14T11:10:49.494Z,45.09
2023-06-14T11:13:17.450Z,45.79
2023-06-14T11:15:48.221Z,47.50
2023-06-14T11:18:17.747Z,48.42
2023-06-14T11:20:47.078Z,48.98
2023-06-14T11:23:14.555Z,48.99
2023-06-14T11:25:41.781Z,48.23
2023-06-14T11:28:10.672Z,48.20
2023-06-14T11:30:38.798Z,47.60
2023-06-14T11:33:10.515Z,47.63
2023-06-14T11:35:39.416Z,48.58
2023-06-14T11:38:08.700Z,48.21
2023-06-14T11:40:36.279Z,48.17
2023-06-14T11:43:03.517Z,48.60
2023-06-14T11:45:31.665Z,50.01
2023-06-14T11:48:02.410Z,50.10
2023-06-14T11:50:31.242Z,51.14
2023-06-14T11:53:11.492Z,52.24
2023-06-14T11:55:40.198Z,52.74
2023-06-14T11:58:08.699Z,53.15
2023-06-14T12:00:37.738Z,53.83
2023-06-14T12:03:05.638Z,53.85
2023-06-14T12:05:35.314Z,54.91
2023-06-14T12:08:04.441Z,54.97
2023-06-14T12:10:31.889Z,54.68
2023-06-14T12:13:00.145Z,55.65
2023-06-14T12:15:31.407Z,55.42
2023-06-14T12:18:02.279Z,55.50
2023-06-14T12:20:32.802Z,55.08
2023-06-14T12:23:01.932Z,55.55
2023-06-14T12:25:34.459Z,55.29
2023-06-14T12:28:09.466Z,54.59
2023-06-14T12:30:37.648Z,55.31
2023-06-14T12:33:05.774Z,56.01
2023-06-14T12:35:33.552Z,55.81
2023-06-14T12:38:01.493Z,55.42
2023-06-14T12:40:29.526Z,56.13
2023-06-14T12:42:57.190Z,55.92
2023-06-14T12:45:25.077Z,56.35
2023-06-14T12:47:53.106Z,56.71
2023-06-14T12:50:24.615Z,56.61
2023-06-14T12:52:53.795Z,56.57
2023-06-14T12:55:21.827Z,56.87
2023-06-14T12:57:51.227Z,56.31
2023-06-14T13:00:19.380Z,57.04
2023-06-14T13:02:47.959Z,55.96
2023-06-14T13:05:15.837Z,56.13
2023-06-14T13:07:43.793Z,55.90
2023-06-14T13:10:11.931Z,58.13
2023-06-14T13:12:39.498Z,57.27
2023-06-14T13:15:08.902Z,58.15
2023-06-14T13:17:39.442Z,57.12
2023-06-14T13:20:08.036Z,57.02
2023-06-14T13:22:35.816Z,55.50
2023-06-14T13:28:33.737Z,56.96
2023-06-14T13:31:01.994Z,55.44
2023-06-14T13:33:29.579Z,55.57
2023-06-14T13:35:57.837Z,55.34
2023-06-14T13:38:25.620Z,54.54
2023-06-14T13:40:53.365Z,55.77
2023-06-14T13:43:20.761Z,56.05
2023-06-14T13:54:25.517Z,56.97
2023-06-14T13:56:53.181Z,57.30
2023-06-14T13:59:20.728Z,57.66
2023-06-14T14:01:49.487Z,57.85
2023-06-14T14:04:18.325Z,57.65
2023-06-14T14:06:49.268Z,57.96
2023-06-14T14:09:17.365Z,58.05
2023-06-14T14:11:45.032Z,58.22
2023-06-14T14:14:12.820Z,58.37
2023-06-14T14:16:40.906Z,59.08
2023-06-14T14:19:08.587Z,59.16
2023-06-14T14:21:37.934Z,59.79
2023-06-14T14:24:05.945Z,60.42
2023-06-14T14:26:33.380Z,60.56
2023-06-14T14:29:02.213Z,61.33
2023-06-14T14:31:29.776Z,61.52
2023-06-14T14:33:57.606Z,61.74
2023-06-14T14:36:24.871Z,62.57
2023-06-14T14:38:56.388Z,63.53
2023-06-14T14:41:26.212Z,63.90
2023-06-14T14:43:54.979Z,63.89
2023-06-14T14:46:26.864Z,64.45
2023-06-14T14:48:55.663Z,64.50
2023-06-14T14:51:23.102Z,64.41
2023-06-14T14:53:51.666Z,65.48
2023-06-14T14:56:20.229Z,65.23
2023-06-14T14:58:47.907Z,65.92
2023-06-14T15:01:17.207Z,65.97
2023-06-14T15:03:58.618Z,66.37
2023-06-14T15:06:27.492Z,65.85
2023-06-14T15:08:55.049Z,66.08
2023-06-14T15:11:22.699Z,65.83
2023-06-14T15:13:54.541Z,65.40
2023-06-14T15:16:22.375Z,65.51
2023-06-14T15:18:49.954Z,65.57
2023-06-14T15:21:22.085Z,65.66
2023-06-14T15:23:51.003Z,65.09
2023-06-14T15:26:18.379Z,65.61
2023-06-14T15:28:45.816Z,65.02
2023-06-14T15:31:13.686Z,65.59
2023-06-14T15:33:42.115Z,65.67
2023-06-14T15:36:11.666Z,65.23
2023-06-14T15:38:39.199Z,65.32
2023-06-14T15:41:07.714Z,65.91
2023-06-14T15:43:35.626Z,65.88
2023-06-14T15:46:02.914Z,67.18
2023-06-14T15:48:32.372Z,66.69
2023-06-14T15:51:05.762Z,66.77
2023-06-14T15:53:37.903Z,67.33
2023-06-14T15:56:05.985Z,67.39
2023-06-14T15:58:33.928Z,67.39
2023-06-14T16:01:01.634Z,67.27
2023-06-14T16:03:29.427Z,67.69
2023-06-14T16:05:57.735Z,67.27
2023-06-14T16:08:39.653Z,67.29
2023-06-14T16:11:09.038Z,66.51
2023-06-14T16:13:36.632Z,66.88
2023-06-14T16:16:04.692Z,66.89
2023-06-14T16:18:42.346Z,66.94
2023-06-14T16:21:11.868Z,66.57
2023-06-14T16:23:44.728Z,66.89
2023-06-14T16:26:13.616Z,66.58
2023-06-14T16:28:45.573Z,66.73
2023-06-14T16:31:17.234Z,67.79
2023-06-14T16:33:45.092Z,68.09
2023-06-14T16:36:13.637Z,68.42
2023-06-14T16:38:41.359Z,68.23
2023-06-14T16:41:09.035Z,67.46
2023-06-14T16:43:36.989Z,67.53
2023-06-14T16:46:04.487Z,68.05
2023-06-14T16:48:32.078Z,68.33
2023-06-14T16:50:59.480Z,68.58
2023-06-14T16:53:27.820Z,68.60
2023-06-14T16:55:55.674Z,68.99
2023-06-14T16:58:23.327Z,69.53
2023-06-14T17:00:51.807Z,69.11
2023-06-14T17:03:19.668Z,69.36
2023-06-14T17:05:59.716Z,69.77
2023-06-14T17:08:27.634Z,70.60
2023-06-14T17:10:56.148Z,70.45
2023-06-14T17:13:23.882Z,70.49
2023-06-14T17:15:51.358Z,70.65
2023-06-14T17:18:19.175Z,70.58
2023-06-14T17:20:47.179Z,70.80
2023-06-14T17:23:14.766Z,71.47
2023-06-14T17:25:42.194Z,71.87
2023-06-14T17:28:09.813Z,72.50
2023-06-14T17:30:37.608Z,72.21
2023-06-14T17:33:14.953Z,72.98
2023-06-14T17:35:43.554Z,73.08
2023-06-14T17:38:12.577Z,72.86
2023-06-14T17:40:49.890Z,72.40
2023-06-14T17:43:19.592Z,72.07
2023-06-14T17:45:48.085Z,72.10
2023-06-14T17:48:15.640Z,71.89
2023-06-14T17:50:43.401Z,72.09
2023-06-14T17:53:10.763Z,72.22
2023-06-14T17:55:38.775Z,71.97
2023-06-14T17:58:06.851Z,72.13
2023-06-14T18:00:34.913Z,72.24
2023-06-14T18:03:03.489Z,72.80
2023-06-14T18:05:31.234Z,73.23
2023-06-14T18:08:00.084Z,73.49
2023-06-14T18:10:27.735Z,73.65
2023-06-14T18:12:56.217Z,73.73
2023-06-14T18:15:23.711Z,73.56
2023-06-14T18:17:52.150Z,74.28
2023-06-14T18:20:20.231Z,75.89
2023-06-14T18:22:48.919Z,75.27
2023-06-14T18:25:19.556Z,75.52
2023-06-14T18:27:47.263Z,75.10
2023-06-14T18:30:15.885Z,75.34
2023-06-14T18:32:47.542Z,75.93
2023-06-14T18:35:16.793Z,75.74
2023-06-14T18:37:45.627Z,75.69
2023-06-14T18:40:14.248Z,75.49
2023-06-14T18:42:42.920Z,76.18
2023-06-14T18:45:10.842Z,76.72
2023-06-14T18:47:38.757Z,75.78
2023-06-14T18:50:07.148Z,75.74
2023-06-14T18:52:35.210Z,75.31
2023-06-14T18:55:05.714Z,75.83
2023-06-14T18:57:34.044Z,75.46
2023-06-14T19:00:02.091Z,75.98
2023-06-14T19:02:31.306Z,75.96
2023-06-14T19:04:59.917Z,75.50
2023-06-14T19:07:27.277Z,76.05
2023-06-14T19:09:54.855Z,76.24
2023-06-14T19:12:22.302Z,76.20
2023-06-14T19:14:49.511Z,76.13
2023-06-14T19:17:17.835Z,76.24
2023-06-14T19:19:46.183Z,76.18
2023-06-14T19:22:14.723Z,76.44
2023-06-14T19:24:42.293Z,76.25
2023-06-14T19:27:09.457Z,76.29
2023-06-14T19:29:37.155Z,76.35
2023-06-14T19:32:05.835Z,76.58
2023-06-14T19:34:33.406Z,76.80
2023-06-14T19:37:01.094Z,76.72
2023-06-14T19:39:28.641Z,76.86
2023-06-14T19:41:56.445Z,76.73
2023-06-14T19:44:23.664Z,76.49
2023-06-14T19:46:51.310Z,76.43
2023-06-14T19:49:19.221Z,76.95
2023-06-14T19:51:46.451Z,76.84
2023-06-14T19:54:14.012Z,76.95
2023-06-14T19:56:41.596Z,77.19
2023-06-14T19:59:09.103Z,77.10
2023-06-14T20:01:36.469Z,77.15
2023-06-14T20:04:04.432Z,77.59
2023-06-14T20:06:32.114Z,78.03
2023-06-14T20:08:59.985Z,77.71
2023-06-14T20:11:28.409Z,77.90
2023-06-14T20:13:56.035Z,77.98
2023-06-14T20:16:24.101Z,77.66
2023-06-14T20:18:52.086Z,77.27
2023-06-14T20:21:19.425Z,77.58
2023-06-14T20:23:47.195Z,77.40
2023-06-14T20:26:14.994Z,76.86
2023-06-14T20:28:42.490Z,76.89
2023-06-14T20:31:11.628Z,77.03
2023-06-14T20:33:39.399Z,76.60
2023-06-14T20:36:07.220Z,76.49
2023-06-14T20:38:34.443Z,76.99
2023-06-14T20:41:01.820Z,76.28
2023-06-14T20:43:29.710Z,76.10
2023-06-14T20:45:57.987Z,76.74
2023-06-14T20:48:26.422Z,76.89
2023-06-14T20:50:54.015Z,76.60
2023-06-14T20:53:21.891Z,76.34
2023-06-14T20:55:49.319Z,76.97
2023-06-14T20:58:18.140Z,76.99
2023-06-14T21:00:45.711Z,76.25
2023-06-14T21:03:13.669Z,77.16
2023-06-14T21:05:41.741Z,76.93
2023-06-14T21:08:09.012Z,77.37
2023-06-14T21:10:37.141Z,76.54
2023-06-14T21:13:04.649Z,76.79
2023-06-14T21:15:35.499Z,77.00
2023-06-14T21:18:03.287Z,76.81
2023-06-14T21:20:30.768Z,77.09
2023-06-14T21:22:58.252Z,76.52
2023-06-14T21:25:25.584Z,76.77
2023-06-14T21:27:53.005Z,76.13
2023-06-14T21:30:31.584Z,75.99
2023-06-14T21:32:58.860Z,76.17
2023-06-14T21:35:26.411Z,76.20
2023-06-14T21:37:54.902Z,75.72
2023-06-14T21:40:22.090Z,76.03
2023-06-14T21:42:49.565Z,76.16
2023-06-14T21:45:17.376Z,75.55
2023-06-14T21:47:46.629Z,75.92
2023-06-14T21:50:14.449Z,75.66
2023-06-14T21:52:41.788Z,75.14
2023-06-14T21:55:09.635Z,74.72
2023-06-14T21:57:37.210Z,74.47
2023-06-14T22:00:05.690Z,74.32
2023-06-14T22:02:33.911Z,74.47
2023-06-14T22:05:01.422Z,74.25
2023-06-14T22:07:32.092Z,73.86
2023-06-14T22:10:00.448Z,73.95
2023-06-14T22:12:29.412Z,72.88
2023-06-14T22:14:57.009Z,69.68
2023-06-14T22:17:25.134Z,66.82
2023-06-14T22:19:52.864Z,63.70
2023-06-14T22:22:30.320Z,62.01
2023-06-14T22:24:57.993Z,58.16
2023-06-14T22:27:27.236Z,55.43
2023-06-14T22:29:58.146Z,53.43
2023-06-14T22:32:29.773Z,51.44
2023-06-14T22:34:57.781Z,49.59
2023-06-14T22:37:36.732Z,48.77
2023-06-14T22:40:12.184Z,47.26
2023-06-14T22:42:48.896Z,45.57
2023-06-14T22:45:28.680Z,44.20
2023-06-14T22:47:57.598Z,43.08
2023-06-14T22:50:25.385Z,41.81
2023-06-14T22:52:53.582Z,39.87
2023-06-14T22:55:21.330Z,39.22
2023-06-14T22:57:49.981Z,37.88
2023-06-14T23:00:18.462Z,37.45
2023-06-14T23:02:46.941Z,36.26
2023-06-14T23:05:15.070Z,35.07
2023-06-14T23:07:43.550Z,33.67
2023-06-14T23:10:11.693Z,32.90
2023-06-14T23:12:41.776Z,32.10
2023-06-14T23:15:10.200Z,30.98
2023-06-14T23:17:42.910Z,30.56
2023-06-14T23:20:10.976Z,30.28
2023-06-14T23:22:42.333Z,29.72
2023-06-14T23:25:10.710Z,29.76
2023-06-14T23:27:38.558Z,28.32
2023-06-14T23:30:06.825Z,28.10
2023-06-14T23:32:35.031Z,27.11
2023-06-14T23:35:03.662Z,25.95
2023-06-14T23:37:31.696Z,26.04
2023-06-14T23:40:01.615Z,24.88
2023-06-14T23:42:32.530Z,24.27
2023-06-14T23:45:03.595Z,23.64
2023-06-14T23:47:34.433Z,22.86
2023-06-14T23:50:01.952Z,21.68
2023-06-14T23:52:30.877Z,21.51
2023-06-14T23:55:02.956Z,21.29
2023-06-14T23:57:31.950Z,21.55
2023-06-14T23:59:59.849Z,21.05
